Time;durP1;ratioP1;P1;durP2;ratioP2;P2;SDS_P1;SDS_P2;PMS_P1;PMS_P2;Temp;Humidity;BMP_temperature;BMP_pressure;BME280_temperature;BME280_humidity;BME280_pressure;Samples;Min_cycle;Max_cycle;Signal;HPM_P1;HPM_P2
2021/09/27 00:00:37;;;;;;;;;;;;;;;15.72;98.32;101443.78;5046081;28;19929;-44
2021/09/27 00:03:04;;;;;;;;;;;;;;;15.69;98.77;101441.38;5034962;28;20410;-42
2021/09/27 00:05:30;;;;;;;;;;;;;;;15.68;99.54;101431.72;5033921;28;19957;-43
2021/09/27 00:07:57;;;;;;;;;;;;;;;15.66;99.13;101443.41;5032387;28;19929;-42
2021/09/27 00:10:31;;;;;;;;;;;;;;;15.62;99.19;101440.16;5032196;28;20410;-40
2021/09/27 00:12:57;;;;;;;;;;;;;;;15.60;98.83;101446.53;5045851;28;19933;-41
2021/09/27 00:15:32;;;;;;;;;;;;;;;15.56;98.53;101448.59;5031658;28;20418;-41
2021/09/27 00:17:58;;;;;;;;;;;;;;;15.60;97.90;101455.34;5033095;28;19978;-41
2021/09/27 00:20:25;;;;;;;;;;;;;;;15.58;97.58;101448.47;5033111;28;19929;-42
2021/09/27 00:22:52;;;;;;;;;;;;;;;15.57;97.19;101442.31;5030437;28;19933;-41
2021/09/27 00:25:19;;;;;;;;;;;;;;;15.55;97.19;101447.72;5031401;28;19948;-42
2021/09/27 00:27:46;;;;;;;;;;;;;;;15.52;97.87;101444.47;5045878;28;19929;-41
2021/09/27 00:30:13;;;;;;;;;;;;;;;15.44;96.40;101447.72;5034076;28;20418;-43
2021/09/27 00:32:40;;;;;;;;;;;;;;;15.42;96.58;101440.84;5032457;28;19961;-42
2021/09/27 00:35:07;;;;;;;;;;;;;;;15.41;96.88;101439.16;5046535;28;19975;-40
2021/09/27 00:37:34;;;;;;;;;;;;;;;15.37;97.63;101439.38;5030797;28;19925;-44
2021/09/27 00:40:01;;;;;;;;;;;;;;;15.46;96.16;101445.81;5031825;28;20023;-45
2021/09/27 00:42:28;;;;;;;;;;;;;;;15.35;95.81;101445.75;5034057;28;19926;-40
2021/09/27 00:44:55;;;;;;;;;;;;;;;15.33;95.75;101439.75;5032959;28;19929;-42
2021/09/27 00:47:22;;;;;;;;;;;;;;;15.24;95.82;101441.25;5045943;28;19929;-45
2021/09/27 00:49:49;;;;;;;;;;;;;;;15.25;95.71;101440.31;5031529;28;19964;-40
2021/09/27 00:52:16;;;;;;;;;;;;;;;15.27;95.16;101434.88;5030894;28;20391;-42
2021/09/27 00:54:43;;;;;;;;;;;;;;;15.26;95.74;101436.72;5031215;28;19934;-46
2021/09/27 00:57:12;;;;;;;;;;;;;;;15.15;95.13;101439.34;5044809;28;19929;-42
2021/09/27 00:59:40;;;;;;;;;;;;;;;15.12;95.88;101439.53;5046701;28;19924;-46
2021/09/27 01:02:07;;;;;;;;;;;;;;;15.23;95.04;101441.38;5047838;28;20392;-46
2021/09/27 01:04:34;;;;;;;;;;;;;;;15.21;95.77;101444.16;5033677;28;19932;-43
2021/09/27 01:07:03;;;;;;;;;;;;;;;15.10;96.11;101438.81;5030788;28;19979;-41
2021/09/27 01:09:49;;;;;;;;;;;;;;;15.08;96.06;101443.38;5030707;28;19939;-42
2021/09/27 01:12:16;;;;;;;;;;;;;;;15.07;95.91;101434.59;5048182;28;19925;-42
2021/09/27 01:15:02;;;;;;;;;;;;;;;15.01;96.08;101437.69;5033661;28;19929;-41
2021/09/27 01:17:48;;;;;;;;;;;;;;;15.02;96.47;101437.59;5048948;28;19925;-42
2021/09/27 01:20:23;;;;;;;;;;;;;;;14.97;96.67;101430.94;5032486;28;19952;-44
2021/09/27 01:22:50;;;;;;;;;;;;;;;15.00;95.92;101430.72;5030323;28;20391;-42
2021/09/27 01:25:17;;;;;;;;;;;;;;;14.95;96.33;101423.09;5030569;28;19929;-42
2021/09/27 01:27:53;;;;;;;;;;;;;;;14.96;95.89;101424.81;5028651;28;19933;-41
2021/09/27 01:30:19;;;;;;;;;;;;;;;14.96;95.60;101423.97;5030702;28;19933;-42
2021/09/27 01:32:47;;;;;;;;;;;;;;;14.89;95.67;101418.28;5030889;28;19979;-41
2021/09/27 01:35:16;;;;;;;;;;;;;;;14.90;95.91;101419.13;5045915;28;19979;-42
2021/09/27 01:37:46;;;;;;;;;;;;;;;14.85;96.66;101419.47;5030385;28;20380;-41
2021/09/27 01:40:26;;;;;;;;;;;;;;;14.84;97.84;101413.31;5030425;28;19933;-42
2021/09/27 01:43:11;;;;;;;;;;;;;;;14.80;97.37;101414.50;5043707;28;20442;-42
2021/09/27 01:45:44;;;;;;;;;;;;;;;14.78;98.09;101415.56;5045602;28;19991;-42
2021/09/27 01:48:16;;;;;;;;;;;;;;;14.73;98.08;101410.63;5030542;28;20260;-40
2021/09/27 01:50:52;;;;;;;;;;;;;;;14.70;97.20;101408.22;5047896;28;19929;-42
2021/09/27 01:53:36;;;;;;;;;;;;;;;14.71;96.72;101415.16;5030148;28;19952;-41
2021/09/27 01:56:09;;;;;;;;;;;;;;;14.70;95.93;101408.22;5031846;28;19975;-41
2021/09/27 01:58:38;;;;;;;;;;;;;;;14.66;96.05;101412.03;5031141;28;19932;-45
2021/09/27 02:01:07;;;;;;;;;;;;;;;14.63;96.25;101410.47;5045699;28;19926;-41
2021/09/27 02:03:38;;;;;;;;;;;;;;;14.66;96.12;101407.59;5029049;28;19960;-42
2021/09/27 02:06:25;;;;;;;;;;;;;;;14.66;95.53;101412.03;5030351;28;19925;-43
2021/09/27 02:08:54;;;;;;;;;;;;;;;14.61;96.07;101406.19;5044866;28;20391;-43
2021/09/27 02:11:25;;;;;;;;;;;;;;;14.59;96.42;101413.41;5043350;28;19976;-42
2021/09/27 02:13:52;;;;;;;;;;;;;;;14.50;97.03;101412.28;5028749;28;19925;-42
2021/09/27 02:16:31;;;;;;;;;;;;;;;14.46;96.80;101414.28;5029590;28;20392;-42
2021/09/27 02:19:11;;;;;;;;;;;;;;;14.56;95.57;101411.84;5030256;28;19971;-42
2021/09/27 02:21:39;;;;;;;;;;;;;;;14.54;95.71;101419.03;5028690;28;19964;-43
2021/09/27 02:24:16;;;;;;;;;;;;;;;14.58;96.18;101409.91;5048393;28;19925;-44
2021/09/27 02:26:47;;;;;;;;;;;;;;;14.50;95.47;101406.97;5036450;28;19929;-42
2021/09/27 02:29:14;;;;;;;;;;;;;;;14.43;96.43;101395.16;5048480;28;19929;-41
2021/09/27 02:31:49;;;;;;;;;;;;;;;14.41;96.65;101394.41;5049364;28;19925;-44
2021/09/27 02:34:17;;;;;;;;;;;;;;;14.35;96.81;101393.91;5051362;28;20438;-41
2021/09/27 02:37:17;;;;;;;;;;;;;;;14.37;95.72;101391.16;5036632;28;19975;-41
2021/09/27 02:40:01;;;;;;;;;;;;;;;14.30;95.77;101385.47;5023093;28;19933;-41
2021/09/27 02:42:33;;;;;;;;;;;;;;;14.28;96.47;101386.53;5031584;28;20400;-42
2021/09/27 02:45:00;;;;;;;;;;;;;;;14.29;97.08;101386.41;5051180;28;19975;-44
2021/09/27 02:47:29;;;;;;;;;;;;;;;14.24;96.78;101390.34;5033779;28;20387;-40
2021/09/27 02:49:57;;;;;;;;;;;;;;;14.25;97.77;101392.03;5049416;28;19940;-41
2021/09/27 02:52:24;;;;;;;;;;;;;;;14.20;97.08;101381.78;5032906;28;20388;-42
2021/09/27 02:54:55;;;;;;;;;;;;;;;14.24;96.25;101385.06;5049217;28;20020;-41
2021/09/27 02:57:27;;;;;;;;;;;;;;;14.24;96.05;101387.72;5046559;28;19929;-44
2021/09/27 03:00:05;;;;;;;;;;;;;;;14.25;97.52;101382.31;5033317;28;19925;-43
2021/09/27 03:02:50;;;;;;;;;;;;;;;14.16;98.19;101381.16;5033119;28;20391;-42
2021/09/27 03:05:25;;;;;;;;;;;;;;;14.16;96.88;101381.16;5033413;28;19925;-41
2021/09/27 03:08:12;;;;;;;;;;;;;;;14.13;98.16;101388.47;5032835;28;19925;-42
2021/09/27 03:10:39;;;;;;;;;;;;;;;14.05;98.68;101375.78;5033450;28;19965;-41
2021/09/27 03:13:09;;;;;;;;;;;;;;;14.09;98.08;101374.63;5032472;28;19961;-40
2021/09/27 03:15:53;;;;;;;;;;;;;;;14.03;97.32;101372.44;5050608;28;19929;-40
2021/09/27 03:18:24;;;;;;;;;;;;;;;14.00;98.27;101367.34;5050932;28;19937;-40
2021/09/27 03:21:06;;;;;;;;;;;;;;;14.03;97.34;101369.78;5033760;28;20311;-40
2021/09/27 03:23:42;;;;;;;;;;;;;;;14.02;97.70;101366.28;5032683;28;19979;-42
2021/09/27 03:26:23;;;;;;;;;;;;;;;14.05;97.72;101359.94;5031721;28;19983;-41
2021/09/27 03:29:06;;;;;;;;;;;;;;;14.08;96.30;101367.63;5032424;28;19983;-40
2021/09/27 03:31:51;;;;;;;;;;;;;;;14.07;96.46;101355.38;5034524;28;19925;-41
2021/09/27 03:34:37;;;;;;;;;;;;;;;14.02;96.14;101357.50;5035363;28;19925;-40
2021/09/27 03:37:22;;;;;;;;;;;;;;;14.05;96.34;101359.09;5048185;28;19925;-40
2021/09/27 03:40:05;;;;;;;;;;;;;;;13.98;95.58;101361.34;5033659;28;19971;-41
2021/09/27 03:42:37;;;;;;;;;;;;;;;13.90;96.29;101356.59;5050754;28;19948;-40
2021/09/27 03:45:33;;;;;;;;;;;;;;;13.89;96.65;101348.75;5035162;28;19932;-40
2021/09/27 03:48:04;;;;;;;;;;;;;;;13.84;97.43;101352.56;5027976;28;19926;-41
2021/09/27 03:50:40;;;;;;;;;;;;;;;13.86;97.53;101345.41;5048651;28;19972;-41
2021/09/27 03:53:07;;;;;;;;;;;;;;;13.85;97.31;101351.63;5033757;28;19941;-42
2021/09/27 03:55:36;;;;;;;;;;;;;;;13.85;97.17;101348.13;5032208;28;19928;-43
2021/09/27 03:58:07;;;;;;;;;;;;;;;13.80;98.05;101355.56;5029651;28;20343;-42
2021/09/27 04:00:37;;;;;;;;;;;;;;;13.85;98.25;101353.41;5047648;28;20050;-41
2021/09/27 04:03:04;;;;;;;;;;;;;;;13.82;98.12;101357.13;5032775;28;20474;-41
2021/09/27 04:05:37;;;;;;;;;;;;;;;13.81;99.19;101360.72;5032133;28;19929;-41
2021/09/27 04:08:07;;;;;;;;;;;;;;;13.78;99.06;101360.09;5031751;28;20383;-41
2021/09/27 04:10:52;;;;;;;;;;;;;;;13.77;99.85;101358.41;5034331;28;20350;-51
2021/09/27 04:13:31;;;;;;;;;;;;;;;13.74;100.00;101362.09;5033840;28;19932;-51
2021/09/27 04:16:16;;;;;;;;;;;;;;;13.76;100.00;101364.66;5033083;28;19925;-51
2021/09/27 04:18:52;;;;;;;;;;;;;;;13.77;100.00;101366.31;5033181;28;19940;-51
2021/09/27 04:21:20;;;;;;;;;;;;;;;13.77;100.00;101364.53;5033342;28;20036;-49
2021/09/27 04:23:53;;;;;;;;;;;;;;;13.84;100.00;101367.59;5050280;28;19929;-50
2021/09/27 04:26:24;;;;;;;;;;;;;;;13.94;100.00;101360.69;5034563;28;19971;-49
2021/09/27 04:29:00;;;;;;;;;;;;;;;13.99;100.00;101361.22;5049836;28;20027;-50
2021/09/27 04:31:27;;;;;;;;;;;;;;;13.99;100.00;101361.22;5034986;28;19925;-52
2021/09/27 04:34:16;;;;;;;;;;;;;;;14.09;100.00;101360.56;5034450;28;19956;-50
2021/09/27 04:36:44;;;;;;;;;;;;;;;14.17;100.00;101361.69;5032178;28;19929;-50
2021/09/27 04:39:12;;;;;;;;;;;;;;;14.15;100.00;101366.25;5047783;28;19956;-50
2021/09/27 04:41:42;;;;;;;;;;;;;;;14.26;100.00;101361.97;5030758;28;20317;-47
2021/09/27 04:44:27;;;;;;;;;;;;;;;14.24;100.00;101355.97;5030742;28;19979;-47
2021/09/27 04:47:02;;;;;;;;;;;;;;;14.27;100.00;101353.09;5033948;28;19979;-49
2021/09/27 04:49:47;;;;;;;;;;;;;;;14.34;100.00;101360.47;5048055;28;19929;-50
2021/09/27 04:52:25;;;;;;;;;;;;;;;14.35;100.00;101362.16;5031865;28;19936;-47
2021/09/27 04:55:13;;;;;;;;;;;;;;;14.40;100.00;101359.19;5032080;28;19979;-52
2021/09/27 04:57:43;;;;;;;;;;;;;;;14.52;100.00;101362.75;5047592;28;19925;-50
2021/09/27 05:00:22;;;;;;;;;;;;;;;14.48;100.00;101363.91;5047686;28;20406;-50
2021/09/27 05:02:54;;;;;;;;;;;;;;;14.46;100.00;101358.72;5046761;28;20489;-51
2021/09/27 05:05:21;;;;;;;;;;;;;;;14.45;100.00;101358.84;5046669;28;19929;-51
2021/09/27 05:07:56;;;;;;;;;;;;;;;14.51;100.00;101351.28;5030973;28;20016;-50
2021/09/27 05:10:28;;;;;;;;;;;;;;;14.54;100.00;101352.88;5031555;28;19975;-49
2021/09/27 05:12:59;;;;;;;;;;;;;;;14.51;100.00;101356.59;5032512;28;19932;-51
2021/09/27 05:15:49;;;;;;;;;;;;;;;14.52;100.00;101345.03;5046714;28;19932;-52
2021/09/27 05:18:54;;;;;;;;;;;;;;;14.57;100.00;101344.69;5028299;28;19932;-42
2021/09/27 05:21:24;;;;;;;;;;;;;;;14.60;100.00;101343.63;4991926;28;20409;-41
2021/09/27 05:24:00;;;;;;;;;;;;;;;14.61;100.00;101335.56;5010596;28;19925;-41
2021/09/27 05:26:45;;;;;;;;;;;;;;;14.56;100.00;101329.78;5019444;28;20665;-40
2021/09/27 05:29:27;;;;;;;;;;;;;;;14.58;100.00;101334.97;5029368;28;20447;-41
2021/09/27 05:32:02;;;;;;;;;;;;;;;14.60;100.00;101336.56;5030522;28;19932;-41
2021/09/27 05:34:46;;;;;;;;;;;;;;;14.54;100.00;101332.53;5031077;28;20380;-50
2021/09/27 05:37:32;;;;;;;;;;;;;;;14.50;100.00;101333.72;5046233;28;19948;-47
2021/09/27 05:39:58;;;;;;;;;;;;;;;14.50;100.00;101335.53;5031222;28;20638;-47
2021/09/27 05:42:31;;;;;;;;;;;;;;;14.45;100.00;101335.00;5028879;28;20024;-53
2021/09/27 05:45:16;;;;;;;;;;;;;;;14.46;100.00;101331.41;5031343;28;20323;-50
2021/09/27 05:47:46;;;;;;;;;;;;;;;14.52;100.00;101328.34;5033162;28;19979;-52
2021/09/27 05:50:16;;;;;;;;;;;;;;;14.43;100.00;101327.19;5033267;28;20249;-53
2021/09/27 05:53:02;;;;;;;;;;;;;;;14.43;100.00;101321.06;5032762;28;19924;-49
2021/09/27 05:55:37;;;;;;;;;;;;;;;14.44;100.00;101320.97;5031586;28;19925;-50
2021/09/27 05:58:07;;;;;;;;;;;;;;;14.50;100.00;101324.94;5027006;28;19936;-50
2021/09/27 06:00:36;;;;;;;;;;;;;;;14.57;100.00;101328.81;5030255;28;19925;-49
2021/09/27 06:03:08;;;;;;;;;;;;;;;14.57;100.00;101317.41;5046384;28;19925;-50
2021/09/27 06:05:54;;;;;;;;;;;;;;;14.60;100.00;101322.44;5030811;28;19929;-51
2021/09/27 06:08:21;;;;;;;;;;;;;;;14.58;100.00;101324.38;5030170;28;19929;-48
2021/09/27 06:10:48;;;;;;;;;;;;;;;14.61;100.00;101324.97;5045280;28;19926;-41
2021/09/27 06:13:19;;;;;;;;;;;;;;;14.62;100.00;101324.03;5043563;28;19925;-41
2021/09/27 06:15:50;;;;;;;;;;;;;;;14.68;100.00;101331.56;5045451;28;20422;-42
2021/09/27 06:18:35;;;;;;;;;;;;;;;14.70;100.00;101328.78;5046249;28;20356;-43
2021/09/27 06:21:20;;;;;;;;;;;;;;;14.73;100.00;101327.72;5032693;28;19932;-44
2021/09/27 06:23:50;;;;;;;;;;;;;;;14.77;100.00;101334.47;5032660;28;19925;-42
2021/09/27 06:26:17;;;;;;;;;;;;;;;14.83;100.00;101323.41;5032477;28;19925;-43
2021/09/27 06:28:47;;;;;;;;;;;;;;;14.86;100.00;101324.03;5047966;28;20412;-44
2021/09/27 06:31:17;;;;;;;;;;;;;;;14.94;100.00;101326.06;5032710;28;20342;-42
2021/09/27 06:33:45;;;;;;;;;;;;;;;14.97;100.00;101317.06;5032581;28;19979;-42
2021/09/27 06:36:15;;;;;;;;;;;;;;;15.07;100.00;101319.88;5047998;28;20336;-51
2021/09/27 06:38:42;;;;;;;;;;;;;;;15.10;100.00;101319.63;5031601;28;19933;-48
2021/09/27 06:41:10;;;;;;;;;;;;;;;15.14;100.00;101310.47;5031115;28;19929;-50
2021/09/27 06:43:37;;;;;;;;;;;;;;;15.20;100.00;101315.28;5029838;28;19928;-50
2021/09/27 06:46:03;;;;;;;;;;;;;;;15.27;100.00;101316.53;5045545;28;20010;-50
2021/09/27 06:48:30;;;;;;;;;;;;;;;15.21;100.00;101312.53;5029818;28;19929;-48
2021/09/27 06:50:57;;;;;;;;;;;;;;;15.21;100.00;101315.19;5030374;28;19971;-42
2021/09/27 06:53:25;;;;;;;;;;;;;;;15.30;100.00;101304.84;5030269;28;20003;-41
2021/09/27 06:55:52;;;;;;;;;;;;;;;15.28;100.00;101304.94;5047551;28;19979;-42
2021/09/27 06:58:21;;;;;;;;;;;;;;;15.38;100.00;101313.03;5032409;28;19925;-41
2021/09/27 07:00:47;;;;;;;;;;;;;;;15.39;100.00;101314.69;5047284;28;19987;-41
2021/09/27 07:03:14;;;;;;;;;;;;;;;15.47;100.00;101306.16;5029633;28;19935;-41
2021/09/27 07:05:41;;;;;;;;;;;;;;;15.55;100.00;101298.44;5029962;28;19983;-43
2021/09/27 07:08:07;;;;;;;;;;;;;;;15.65;100.00;101301.19;5029584;28;19925;-41
2021/09/27 07:10:34;;;;;;;;;;;;;;;15.64;100.00;101299.53;5031112;28;20510;-41
2021/09/27 07:13:01;;;;;;;;;;;;;;;15.72;100.00;101297.13;5033481;28;19925;-42
2021/09/27 07:15:28;;;;;;;;;;;;;;;15.78;100.00;101293.13;5033788;28;20291;-44
2021/09/27 07:17:54;;;;;;;;;;;;;;;15.91;100.00;101293.88;5033348;28;19936;-42
2021/09/27 07:20:22;;;;;;;;;;;;;;;15.97;100.00;101292.53;5032000;28;20387;-42
2021/09/27 07:22:52;;;;;;;;;;;;;;;16.11;100.00;101288.75;5032644;28;19925;-46
2021/09/27 07:25:19;;;;;;;;;;;;;;;16.30;100.00;101288.91;5049601;28;19925;-42
2021/09/27 07:27:47;;;;;;;;;;;;;;;16.41;100.00;101289.84;5035767;28;20395;-50
2021/09/27 07:30:14;;;;;;;;;;;;;;;16.65;100.00;101286.97;5034456;28;20340;-52
2021/09/27 07:32:41;;;;;;;;;;;;;;;16.70;100.00;101282.06;5048392;28;19983;-51
2021/09/27 07:35:09;;;;;;;;;;;;;;;16.96;100.00;101276.41;5048766;28;20027;-53
2021/09/27 07:37:38;;;;;;;;;;;;;;;17.03;99.59;101285.56;5031370;28;19926;-49
2021/09/27 07:40:06;;;;;;;;;;;;;;;17.16;99.14;101274.69;5032709;28;20382;-54
2021/09/27 07:42:32;;;;;;;;;;;;;;;17.42;98.03;101269.75;5046233;28;19925;-51
2021/09/27 07:44:59;;;;;;;;;;;;;;;17.38;98.40;101273.66;5047719;28;20001;-52
2021/09/27 07:47:26;;;;;;;;;;;;;;;17.62;96.52;101268.00;5032353;28;19983;-53
2021/09/27 07:49:52;;;;;;;;;;;;;;;17.71;95.22;101272.53;5031602;28;19929;-54
2021/09/27 07:52:19;;;;;;;;;;;;;;;17.67;95.88;101267.59;5031908;28;19925;-52
2021/09/27 07:54:46;;;;;;;;;;;;;;;17.63;94.86;101267.03;5032682;28;19929;-51
2021/09/27 07:57:14;;;;;;;;;;;;;;;17.53;95.64;101271.47;5034460;28;19929;-53
2021/09/27 07:59:46;;;;;;;;;;;;;;;17.64;94.56;101267.88;5032448;28;19937;-52
2021/09/27 08:02:18;;;;;;;;;;;;;;;17.61;95.46;101271.66;5032219;28;20384;-53
2021/09/27 08:04:45;;;;;;;;;;;;;;;17.64;95.64;101274.06;5033062;28;19975;-46
2021/09/27 08:07:12;;;;;;;;;;;;;;;17.70;94.83;101273.50;5050081;28;19975;-45
2021/09/27 08:09:39;;;;;;;;;;;;;;;17.74;94.77;101264.25;5047596;28;19937;-43
2021/09/27 08:12:05;;;;;;;;;;;;;;;17.86;93.96;101266.78;5029254;28;20052;-43
2021/09/27 08:14:32;;;;;;;;;;;;;;;17.84;93.98;101266.09;5031209;28;20307;-43
2021/09/27 08:16:59;;;;;;;;;;;;;;;17.79;93.65;101258.53;5047161;28;19925;-43
2021/09/27 08:19:25;;;;;;;;;;;;;;;17.94;93.88;101259.00;5032854;28;20295;-44
2021/09/27 08:21:52;;;;;;;;;;;;;;;17.99;93.07;101255.94;5031065;28;19925;-42
2021/09/27 08:24:19;;;;;;;;;;;;;;;18.05;93.68;101258.03;5046453;28;19925;-46
2021/09/27 08:26:46;;;;;;;;;;;;;;;18.17;92.75;101266.72;5033498;28;19929;-46
2021/09/27 08:29:13;;;;;;;;;;;;;;;18.19;92.09;101256.81;5049615;28;19925;-44
2021/09/27 08:31:41;;;;;;;;;;;;;;;18.36;90.61;101248.09;5048611;28;20291;-44
2021/09/27 08:34:07;;;;;;;;;;;;;;;18.48;90.16;101245.28;5031065;28;19929;-45
2021/09/27 08:36:34;;;;;;;;;;;;;;;18.49;89.85;101252.31;5031376;28;19957;-46
2021/09/27 08:39:01;;;;;;;;;;;;;;;18.58;89.13;101246.97;5033771;28;19925;-46
2021/09/27 08:41:37;;;;;;;;;;;;;;;18.81;89.04;101235.97;5030569;28;20821;-54
2021/09/27 08:44:22;;;;;;;;;;;;;;;18.78;88.36;101235.44;5046272;28;19983;-52
2021/09/27 08:47:02;;;;;;;;;;;;;;;18.99;87.55;101236.09;5030100;28;19940;-53
2021/09/27 08:49:43;;;;;;;;;;;;;;;18.99;87.68;101243.25;5030350;28;19929;-54
2021/09/27 08:52:14;;;;;;;;;;;;;;;18.98;87.44;101241.56;5046602;28;19983;-53
2021/09/27 08:54:40;;;;;;;;;;;;;;;18.94;86.52;101235.69;5032457;28;19932;-44
2021/09/27 08:57:13;;;;;;;;;;;;;;;19.05;86.63;101246.16;5046457;28;19929;-52
2021/09/27 08:59:43;;;;;;;;;;;;;;;19.09;86.33;101233.41;5046558;28;19925;-47
2021/09/27 09:02:21;;;;;;;;;;;;;;;19.15;85.13;101230.13;5033462;28;19925;-46
2021/09/27 09:04:52;;;;;;;;;;;;;;;19.23;84.59;101229.41;5046720;28;19968;-45
2021/09/27 09:07:19;;;;;;;;;;;;;;;19.25;85.26;101232.75;5045327;28;20020;-44
2021/09/27 09:09:47;;;;;;;;;;;;;;;19.33;84.96;101229.34;5031536;28;20059;-49
2021/09/27 09:12:33;;;;;;;;;;;;;;;19.30;84.90;101225.16;5027837;28;19987;-44
2021/09/27 09:15:08;;;;;;;;;;;;;;;19.29;85.27;101217.31;5049064;28;19925;-43
2021/09/27 09:17:35;;;;;;;;;;;;;;;19.40;84.88;101228.63;5048938;28;19925;-42
2021/09/27 09:20:03;;;;;;;;;;;;;;;19.49;83.59;101231.38;5033831;28;19932;-48
2021/09/27 09:22:35;;;;;;;;;;;;;;;19.38;84.66;101227.09;5049088;28;19932;-48
2021/09/27 09:25:07;;;;;;;;;;;;;;;19.56;83.89;101222.59;5032449;28;20342;-45
2021/09/27 09:27:33;;;;;;;;;;;;;;;19.52;84.28;101228.41;5043344;28;19971;-44
2021/09/27 09:30:00;;;;;;;;;;;;;;;19.54;83.24;101226.44;5031379;28;19928;-43
2021/09/27 09:32:29;;;;;;;;;;;;;;;19.58;82.66;101223.31;5031139;28;19971;-47
2021/09/27 09:35:20;;;;;;;;;;;;;;;19.54;83.27;101218.44;5033313;28;19925;-46
2021/09/27 09:37:55;;;;;;;;;;;;;;;19.62;82.78;101231.88;5030391;28;19925;-43
2021/09/27 09:40:31;;;;;;;;;;;;;;;19.64;83.22;101232.53;5032333;28;19933;-43
2021/09/27 09:42:59;;;;;;;;;;;;;;;19.58;83.28;101228.66;5028866;28;20028;-45
2021/09/27 09:45:28;;;;;;;;;;;;;;;19.65;83.12;101218.22;5031499;28;19925;-46
2021/09/27 09:48:10;;;;;;;;;;;;;;;19.75;82.65;101220.81;5030978;28;19955;-45
2021/09/27 09:50:37;;;;;;;;;;;;;;;19.74;82.81;101225.31;5031036;28;19929;-45
2021/09/27 09:53:14;;;;;;;;;;;;;;;20.00;82.94;101218.41;5033109;28;19925;-44
2021/09/27 09:55:45;;;;;;;;;;;;;;;20.00;82.22;101219.28;5033045;28;19931;-42
2021/09/27 09:58:14;;;;;;;;;;;;;;;20.17;81.94;101212.22;5048021;28;19925;-43
2021/09/27 10:00:47;;;;;;;;;;;;;;;20.18;81.53;101224.59;5047915;28;19925;-43
2021/09/27 10:03:16;;;;;;;;;;;;;;;20.30;81.08;101217.19;5030223;28;19931;-42
2021/09/27 10:05:44;;;;;;;;;;;;;;;20.27;80.34;101212.13;5045743;28;19971;-44
2021/09/27 10:08:18;;;;;;;;;;;;;;;20.39;79.95;101221.59;5044643;28;19929;-42
2021/09/27 10:11:05;;;;;;;;;;;;;;;20.47;80.19;101223.47;5045677;28;19929;-44
2021/09/27 10:13:34;;;;;;;;;;;;;;;20.63;79.40;101219.25;5027710;28;19936;-43
2021/09/27 10:16:06;;;;;;;;;;;;;;;20.87;78.82;101213.25;5030189;28;19933;-42
2021/09/27 10:18:34;;;;;;;;;;;;;;;21.11;78.18;101215.22;5030100;28;19929;-43
2021/09/27 10:21:03;;;;;;;;;;;;;;;20.92;77.48;101210.94;5032264;28;20400;-41
2021/09/27 10:23:37;;;;;;;;;;;;;;;20.90;77.14;101210.25;5029809;28;19932;-45
2021/09/27 10:26:16;;;;;;;;;;;;;;;20.94;77.76;101208.94;5029704;28;20276;-42
2021/09/27 10:28:43;;;;;;;;;;;;;;;20.89;77.71;101216.63;5032688;28;19948;-45
2021/09/27 10:31:10;;;;;;;;;;;;;;;20.86;77.18;101212.41;5047246;28;19925;-47
2021/09/27 10:33:40;;;;;;;;;;;;;;;20.93;76.16;101197.41;5030827;28;19979;-43
2021/09/27 10:36:08;;;;;;;;;;;;;;;21.01;75.79;101199.28;5047181;28;19945;-44
2021/09/27 10:38:43;;;;;;;;;;;;;;;20.94;76.97;101196.41;5029106;28;19929;-46
2021/09/27 10:41:12;;;;;;;;;;;;;;;20.88;76.00;101193.53;5028437;28;19936;-45
2021/09/27 10:43:39;;;;;;;;;;;;;;;20.98;75.88;101199.59;5043972;28;19925;-45
2021/09/27 10:46:06;;;;;;;;;;;;;;;20.92;76.50;101201.06;5031518;28;19983;-43
2021/09/27 10:48:33;;;;;;;;;;;;;;;20.93;75.85;101201.94;5033434;28;20300;-49
2021/09/27 10:51:02;;;;;;;;;;;;;;;20.99;75.91;101184.41;5032845;28;20669;-44
2021/09/27 10:53:30;;;;;;;;;;;;;;;20.91;75.31;101185.19;5050011;28;19970;-45
2021/09/27 10:56:09;;;;;;;;;;;;;;;20.90;75.56;101178.16;5032169;28;20383;-44
2021/09/27 10:58:38;;;;;;;;;;;;;;;20.90;76.08;101180.84;5048100;28;19925;-44
2021/09/27 11:01:06;;;;;;;;;;;;;;;21.00;75.20;101178.06;5035620;28;20375;-43
2021/09/27 11:03:41;;;;;;;;;;;;;;;20.88;75.99;101183.69;5035257;28;19964;-45
2021/09/27 11:06:27;;;;;;;;;;;;;;;20.91;76.02;101177.19;5048143;28;19933;-43
2021/09/27 11:08:59;;;;;;;;;;;;;;;20.93;76.28;101175.19;5034701;28;19929;-45
2021/09/27 11:11:29;;;;;;;;;;;;;;;21.02;75.89;101176.88;5050979;28;20339;-47
2021/09/27 11:13:56;;;;;;;;;;;;;;;21.00;75.87;101162.84;5051167;28;19961;-46
2021/09/27 11:16:30;;;;;;;;;;;;;;;21.03;75.53;101161.69;5033374;28;19925;-47
2021/09/27 11:19:07;;;;;;;;;;;;;;;21.03;75.37;101165.19;5033187;28;20035;-48
2021/09/27 11:21:42;;;;;;;;;;;;;;;21.00;76.05;101167.38;5031539;28;19929;-44
2021/09/27 11:24:09;;;;;;;;;;;;;;;20.97;75.26;101160.50;5033613;28;20311;-46
2021/09/27 11:26:38;;;;;;;;;;;;;;;20.96;75.03;101166.03;5048255;28;19925;-42
2021/09/27 11:29:13;;;;;;;;;;;;;;;20.99;73.81;101166.53;5035800;28;19953;-42
2021/09/27 11:31:41;;;;;;;;;;;;;;;20.82;75.02;101162.09;5035576;28;19932;-43
2021/09/27 11:34:26;;;;;;;;;;;;;;;20.95;74.91;101157.16;5048584;28;19957;-48
2021/09/27 11:37:06;;;;;;;;;;;;;;;20.94;75.15;101156.31;5032518;28;19925;-43
2021/09/27 11:39:38;;;;;;;;;;;;;;;20.97;75.39;101152.50;5031557;28;19987;-44
2021/09/27 11:42:14;;;;;;;;;;;;;;;21.16;74.69;101147.88;5046269;28;19983;-44
2021/09/27 11:44:54;;;;;;;;;;;;;;;21.07;74.76;101150.50;5034493;28;20281;-43
2021/09/27 11:47:44;;;;;;;;;;;;;;;21.23;73.99;101152.41;5034318;28;19925;-44
2021/09/27 11:50:33;;;;;;;;;;;;;;;21.34;73.49;101155.81;5032934;28;19929;-41
2021/09/27 11:53:17;;;;;;;;;;;;;;;21.36;73.89;101154.59;5021382;28;19931;-42
2021/09/27 11:55:45;;;;;;;;;;;;;;;21.39;73.02;101143.59;5048270;28;19952;-45
2021/09/27 11:58:11;;;;;;;;;;;;;;;21.42;73.05;101147.78;5015884;28;20567;-42
2021/09/27 12:00:41;;;;;;;;;;;;;;;21.37;73.34;101150.94;5032625;28;20441;-45
2021/09/27 12:03:11;;;;;;;;;;;;;;;21.18;73.83;101153.91;5047651;28;20012;-42
2021/09/27 12:05:47;;;;;;;;;;;;;;;21.35;73.62;101142.25;5032451;28;19976;-49
2021/09/27 12:08:17;;;;;;;;;;;;;;;21.40;72.87;101147.94;5030096;28;19925;-49
2021/09/27 12:10:46;;;;;;;;;;;;;;;21.48;71.49;101140.94;5047879;28;19979;-52
2021/09/27 12:13:17;;;;;;;;;;;;;;;21.47;71.23;101150.78;5029815;28;19933;-53
2021/09/27 12:15:45;;;;;;;;;;;;;;;21.43;70.01;101149.44;5047421;28;19968;-53
2021/09/27 12:18:30;;;;;;;;;;;;;;;21.34;71.10;101145.94;5047199;28;20355;-53
2021/09/27 12:20:57;;;;;;;;;;;;;;;21.28;69.32;101144.75;5033108;28;19929;-52
2021/09/27 12:23:23;;;;;;;;;;;;;;;21.27;69.48;101136.88;5049818;28;19926;-53
2021/09/27 12:25:51;;;;;;;;;;;;;;;21.19;69.48;101140.38;5034428;28;20287;-49
2021/09/27 12:28:27;;;;;;;;;;;;;;;21.07;70.27;101139.00;5034349;28;19929;-52
2021/09/27 12:30:55;;;;;;;;;;;;;;;21.15;70.39;101116.81;5034776;28;19932;-53
2021/09/27 12:33:34;;;;;;;;;;;;;;;21.13;70.34;101118.78;5034616;28;19925;-52
2021/09/27 12:36:02;;;;;;;;;;;;;;;21.30;69.39;101115.16;5033171;28;19925;-52
2021/09/27 12:38:29;;;;;;;;;;;;;;;21.14;69.47;101117.78;5029830;28;19925;-51
2021/09/27 12:40:56;;;;;;;;;;;;;;;21.07;70.04;101123.78;5031064;28;19925;-54
2021/09/27 12:43:23;;;;;;;;;;;;;;;21.16;70.55;101121.13;5029181;28;20379;-53
2021/09/27 12:45:52;;;;;;;;;;;;;;;21.14;70.35;101117.78;5032067;28;19925;-52
2021/09/27 12:48:22;;;;;;;;;;;;;;;21.26;70.52;101127.19;5035903;28;19925;-49
2021/09/27 12:50:50;;;;;;;;;;;;;;;21.31;70.42;101124.88;5058298;28;20312;-50
2021/09/27 12:53:17;;;;;;;;;;;;;;;21.38;70.54;101120.53;5060851;28;20360;-41
2021/09/27 12:55:45;;;;;;;;;;;;;;;21.38;70.10;101123.19;5053100;28;19935;-47
2021/09/27 12:58:19;;;;;;;;;;;;;;;21.48;70.30;101123.03;5047643;28;19929;-51